Time;durP1;ratioP1;P1;durP2;ratioP2;P2;SDS_P1;SDS_P2;PMS_P1;PMS_P2;Temp;Humidity;BMP_temperature;BMP_pressure;BME280_temperature;BME280_humidity;BME280_pressure;Samples;Min_cycle;Max_cycle;Signal;HPM_P1;HPM_P2
2023/07/12 00:00:22;;;;;;;5.15;2.05;;;22.40;78.20;;;;;;4997873;28;20046;-62
2023/07/12 00:02:48;;;;;;;3.97;2.25;;;22.30;78.40;;;;;;4999309;28;20046;-63
2023/07/12 00:05:14;;;;;;;4.30;2.10;;;22.30;78.40;;;;;;5001059;28;20507;-63
2023/07/12 00:07:39;;;;;;;5.70;2.63;;;22.30;78.40;;;;;;4996682;28;20049;-64
2023/07/12 00:10:15;;;;;;;5.03;2.45;;;22.30;78.60;;;;;;4998196;28;20571;-64
2023/07/12 00:12:40;;;;;;;4.38;2.10;;;22.30;80.00;;;;;;4996106;28;20504;-64
2023/07/12 00:15:08;;;;;;;6.95;2.65;;;22.30;79.00;;;;;;4999073;28;20045;-64
2023/07/12 00:17:33;;;;;;;5.35;2.55;;;22.30;79.30;;;;;;5000201;28;20564;-63
2023/07/12 00:19:59;;;;;;;5.25;2.70;;;22.40;79.20;;;;;;4999606;28;20077;-64
2023/07/12 00:22:25;;;;;;;3.13;2.20;;;22.40;78.90;;;;;;4999288;28;20041;-63
2023/07/12 00:24:50;;;;;;;4.68;2.45;;;22.40;79.00;;;;;;4996261;28;20049;-63
2023/07/12 00:27:16;;;;;;;5.47;2.33;;;22.40;79.00;;;;;;4998212;28;20037;-63
2023/07/12 00:29:41;;;;;;;4.80;2.55;;;22.50;79.10;;;;;;4998101;28;20053;-63
2023/07/12 00:32:08;;;;;;;3.50;2.60;;;22.50;79.20;;;;;;4998987;28;20041;-63
2023/07/12 00:34:34;;;;;;;3.90;2.30;;;22.50;79.00;;;;;;4999403;28;20551;-63
2023/07/12 00:36:59;;;;;;;4.90;2.40;;;22.50;78.90;;;;;;5003614;28;20386;-63
2023/07/12 00:39:25;;;;;;;5.40;3.13;;;22.40;78.90;;;;;;5002526;28;20064;-62
2023/07/12 00:42:03;;;;;;;4.13;2.58;;;22.50;78.90;;;;;;5002437;28;20113;-63
2023/07/12 00:44:42;;;;;;;4.10;2.65;;;22.40;80.00;;;;;;5002896;28;20048;-63
2023/07/12 00:47:11;;;;;;;3.05;2.55;;;22.40;80.60;;;;;;5000309;28;20136;-64
2023/07/12 00:49:37;;;;;;;4.72;2.92;;;22.40;80.00;;;;;;4999045;28;20042;-62
2023/07/12 00:52:21;;;;;;;5.68;2.88;;;22.40;79.70;;;;;;5000235;28;20555;-64
2023/07/12 00:55:01;;;;;;;3.60;2.70;;;22.40;81.40;;;;;;4996089;28;20050;-61
2023/07/12 00:57:29;;;;;;;6.22;2.65;;;22.40;79.40;;;;;;4998394;28;20116;-63
2023/07/12 00:59:59;;;;;;;5.55;2.97;;;22.30;79.80;;;;;;4996629;28;20034;-63
2023/07/12 01:02:25;;;;;;;8.80;3.00;;;22.40;80.30;;;;;;5000887;28;20044;-63
2023/07/12 01:04:54;;;;;;;7.75;3.20;;;22.40;80.10;;;;;;4994840;28;20038;-62
2023/07/12 01:07:22;;;;;;;5.78;2.80;;;22.30;80.30;;;;;;4998810;28;20034;-64
2023/07/12 01:09:48;;;;;;;5.07;2.70;;;22.30;80.40;;;;;;4997057;28;20323;-63
2023/07/12 01:12:13;;;;;;;3.92;2.80;;;22.30;80.20;;;;;;4996211;28;20033;-64
2023/07/12 01:14:41;;;;;;;6.82;3.25;;;22.30;80.10;;;;;;4996832;28;20162;-61
2023/07/12 01:17:08;;;;;;;4.45;3.28;;;22.30;80.20;;;;;;4996700;28;20424;-65
2023/07/12 01:19:36;;;;;;;4.40;2.92;;;22.30;79.90;;;;;;4999568;28;20580;-63
2023/07/12 01:22:02;;;;;;;4.22;3.22;;;22.20;80.00;;;;;;4999632;28;20069;-64
2023/07/12 01:24:31;;;;;;;4.70;3.20;;;22.10;79.90;;;;;;4997093;28;20049;-63
2023/07/12 01:27:03;;;;;;;4.40;3.13;;;22.00;80.30;;;;;;5000162;28;20038;-64
2023/07/12 01:29:29;;;;;;;4.15;3.08;;;22.00;80.90;;;;;;5000946;28;20049;-61
2023/07/12 01:31:55;;;;;;;5.22;2.42;;;21.90;81.00;;;;;;5004887;28;20037;-64
2023/07/12 01:34:23;;;;;;;4.45;2.47;;;21.80;81.50;;;;;;4998938;28;20030;-64
2023/07/12 01:36:48;;;;;;;5.13;2.65;;;21.70;81.50;;;;;;5000866;28;20405;-64
2023/07/12 01:39:14;;;;;;;6.85;2.60;;;21.70;81.50;;;;;;5003414;28;20519;-64
2023/07/12 01:41:39;;;;;;;4.35;2.70;;;21.70;81.90;;;;;;4996761;28;20034;-64
2023/07/12 01:44:06;;;;;;;4.53;2.70;;;21.70;81.90;;;;;;5003659;28;20038;-63
2023/07/12 01:46:32;;;;;;;3.72;2.75;;;21.70;81.90;;;;;;4999653;28;20038;-63
2023/07/12 01:48:58;;;;;;;3.85;2.67;;;21.70;82.10;;;;;;5000632;28;20044;-63
2023/07/12 01:51:23;;;;;;;6.53;3.50;;;21.70;82.20;;;;;;5002675;28;20269;-62
2023/07/12 01:53:49;;;;;;;5.35;3.25;;;21.70;82.80;;;;;;5001753;28;20068;-64
2023/07/12 01:56:16;;;;;;;7.05;3.55;;;21.70;82.90;;;;;;5002374;28;20046;-62
2023/07/12 01:58:42;;;;;;;9.77;3.63;;;21.60;83.10;;;;;;5000591;28;20046;-64
2023/07/12 02:01:08;;;;;;;5.22;3.30;;;21.60;83.20;;;;;;5002008;28;20026;-63
2023/07/12 02:03:34;;;;;;;5.85;3.55;;;21.50;83.50;;;;;;4999114;28;20500;-63
2023/07/12 02:05:59;;;;;;;4.88;3.17;;;21.50;83.80;;;;;;5000854;28;20037;-61
2023/07/12 02:08:25;;;;;;;6.40;3.20;;;21.40;83.80;;;;;;5003353;28;20066;-63
2023/07/12 02:10:51;;;;;;;5.97;3.10;;;21.40;84.00;;;;;;4997901;28;20038;-64
2023/07/12 02:13:19;;;;;;;4.32;3.10;;;21.40;83.90;;;;;;4996249;28;20461;-64
2023/07/12 02:15:45;;;;;;;6.13;2.92;;;21.40;84.00;;;;;;5001722;28;20054;-63
2023/07/12 02:18:12;;;;;;;4.18;2.60;;;21.40;84.00;;;;;;5004499;28;20065;-63
2023/07/12 02:20:39;;;;;;;5.00;3.13;;;21.50;84.10;;;;;;5000991;28;20495;-63
2023/07/12 02:23:05;;;;;;;3.80;2.80;;;21.50;84.10;;;;;;5002449;28;20417;-63
2023/07/12 02:25:30;;;;;;;5.70;2.95;;;21.60;84.30;;;;;;5003466;28;20030;-64
2023/07/12 02:27:56;;;;;;;5.10;2.88;;;21.70;84.00;;;;;;5002098;28;21218;-63
2023/07/12 02:30:25;;;;;;;5.28;2.92;;;21.70;83.70;;;;;;4999430;28;20050;-63
2023/07/12 02:32:52;;;;;;;6.40;3.00;;;21.70;83.80;;;;;;5002541;28;20038;-64
2023/07/12 02:35:18;;;;;;;4.40;2.83;;;21.80;83.60;;;;;;5004022;28;20038;-63
2023/07/12 02:37:44;;;;;;;5.93;3.35;;;21.80;83.30;;;;;;5006014;28;20422;-62
2023/07/12 02:40:11;;;;;;;6.25;2.88;;;21.80;83.10;;;;;;5004951;28;20053;-63
2023/07/12 02:42:37;;;;;;;5.25;2.95;;;21.90;83.00;;;;;;5005332;28;20099;-65
2023/07/12 02:45:04;;;;;;;6.25;3.10;;;21.90;82.80;;;;;;5004476;28;20120;-63
2023/07/12 02:47:30;;;;;;;3.92;2.78;;;21.90;82.60;;;;;;4998105;28;20045;-62
2023/07/12 02:49:56;;;;;;;5.53;2.95;;;21.90;82.50;;;;;;5001562;28;20066;-62
2023/07/12 02:52:21;;;;;;;6.95;2.80;;;21.90;82.40;;;;;;5000971;28;20041;-64
2023/07/12 02:54:47;;;;;;;3.15;2.47;;;21.90;82.30;;;;;;5001512;28;20736;-63
2023/07/12 02:57:14;;;;;;;5.60;2.67;;;21.90;81.90;;;;;;5001899;28;20041;-63
2023/07/12 02:59:40;;;;;;;3.53;2.13;;;21.90;81.80;;;;;;4999285;28;20444;-64
2023/07/12 03:02:08;;;;;;;2.92;2.30;;;22.00;81.80;;;;;;4999448;28;20033;-63
2023/07/12 03:04:34;;;;;;;5.07;2.60;;;21.90;81.50;;;;;;5000200;28;20069;-63
2023/07/12 03:07:00;;;;;;;4.85;2.45;;;21.90;81.50;;;;;;5000933;28;20038;-64
2023/07/12 03:09:26;;;;;;;4.40;2.72;;;21.80;81.50;;;;;;5000866;28;20413;-64
2023/07/12 03:11:52;;;;;;;3.63;2.40;;;21.70;81.60;;;;;;4995941;28;20030;-63
2023/07/12 03:14:19;;;;;;;7.15;2.60;;;21.70;81.80;;;;;;4999315;28;20045;-64
2023/07/12 03:16:45;;;;;;;3.08;2.25;;;21.60;81.90;;;;;;5001033;28;20041;-63
2023/07/12 03:19:11;;;;;;;7.38;2.55;;;21.60;82.20;;;;;;5000844;28;20045;-63
2023/07/12 03:21:37;;;;;;;5.40;2.45;;;21.60;82.20;;;;;;5000662;28;20045;-61
2023/07/12 03:24:03;;;;;;;5.03;2.65;;;21.60;82.20;;;;;;5001507;28;20536;-63
2023/07/12 03:26:28;;;;;;;4.13;2.70;;;21.60;82.00;;;;;;5000065;28;20484;-63
2023/07/12 03:28:55;;;;;;;2.95;2.53;;;21.60;82.20;;;;;;4998015;28;20037;-62
2023/07/12 03:31:22;;;;;;;5.45;2.90;;;21.60;82.10;;;;;;4999993;28;20038;-63
2023/07/12 03:33:48;;;;;;;4.05;2.55;;;21.50;81.90;;;;;;4998691;28;20042;-62
2023/07/12 03:36:15;;;;;;;4.30;2.38;;;21.50;82.00;;;;;;4999648;28;20524;-63
2023/07/12 03:38:41;;;;;;;4.55;2.53;;;21.40;82.10;;;;;;4998308;28;20502;-63
2023/07/12 03:41:10;;;;;;;4.80;2.22;;;21.40;82.30;;;;;;5013980;28;20045;-63
2023/07/12 03:43:36;;;;;;;7.43;2.55;;;21.40;82.60;;;;;;4999765;28;20061;-64
2023/07/12 03:46:03;;;;;;;4.47;2.83;;;21.40;82.40;;;;;;4997380;28;20034;-62
2023/07/12 03:48:29;;;;;;;7.95;2.70;;;21.20;82.40;;;;;;4998953;28;20049;-61
2023/07/12 03:50:55;;;;;;;4.25;2.60;;;21.20;82.80;;;;;;4998817;28;20034;-63
2023/07/12 03:53:25;;;;;;;6.32;3.03;;;21.20;83.20;;;;;;4999699;28;20505;-62
2023/07/12 03:55:51;;;;;;;4.75;2.60;;;21.10;83.30;;;;;;4999845;28;20386;-63
2023/07/12 03:58:19;;;;;;;4.80;2.78;;;21.10;83.30;;;;;;4998479;28;20044;-63
2023/07/12 04:00:48;;;;;;;4.22;2.83;;;21.10;83.40;;;;;;4998575;28;20104;-62
2023/07/12 04:03:14;;;;;;;2.85;2.35;;;21.00;83.40;;;;;;4999279;28;20456;-61
2023/07/12 04:05:41;;;;;;;4.63;2.70;;;21.00;83.50;;;;;;4998817;28;20044;-63
2023/07/12 04:08:08;;;;;;;4.63;2.55;;;21.00;83.90;;;;;;4996688;28;20501;-63
2023/07/12 04:10:34;;;;;;;7.10;2.78;;;21.00;84.10;;;;;;5000005;28;20041;-63
2023/07/12 04:13:01;;;;;;;6.25;2.50;;;21.00;84.10;;;;;;4996823;28;20579;-64
2023/07/12 04:15:26;;;;;;;4.50;3.47;;;21.00;84.30;;;;;;4997811;28;20124;-63
2023/07/12 04:17:52;;;;;;;6.32;4.10;;;20.90;84.70;;;;;;4997691;28;20045;-64
2023/07/12 04:20:18;;;;;;;7.03;3.60;;;20.90;84.80;;;;;;4997064;28;20612;-63
2023/07/12 04:22:43;;;;;;;8.55;3.50;;;20.90;85.10;;;;;;4997257;28;20034;-62
2023/07/12 04:25:10;;;;;;;10.20;3.53;;;20.80;85.40;;;;;;4997209;28;20112;-64
2023/07/12 04:27:37;;;;;;;7.55;4.07;;;20.80;85.80;;;;;;4997455;28;20045;-63
2023/07/12 04:30:05;;;;;;;6.10;3.20;;;20.90;86.10;;;;;;4999834;28;20088;-61
2023/07/12 04:32:30;;;;;;;5.50;3.40;;;20.90;86.00;;;;;;5001240;28;20650;-62
2023/07/12 04:34:56;;;;;;;6.30;3.00;;;21.00;85.90;;;;;;5002598;28;20164;-63
2023/07/12 04:37:22;;;;;;;5.38;3.08;;;21.00;85.70;;;;;;5002186;28;20045;-64
2023/07/12 04:39:47;;;;;;;6.32;3.60;;;21.10;85.70;;;;;;5003604;28;20042;-63
2023/07/12 04:42:13;;;;;;;5.93;3.00;;;21.10;85.60;;;;;;5004936;28;20071;-63
2023/07/12 04:44:39;;;;;;;7.82;2.92;;;21.10;85.60;;;;;;5002877;28;20030;-64
2023/07/12 04:47:06;;;;;;;4.78;2.78;;;21.10;85.70;;;;;;5002977;28;20041;-63
2023/07/12 04:49:32;;;;;;;5.97;2.65;;;21.20;85.90;;;;;;5002053;28;20038;-64
2023/07/12 04:51:58;;;;;;;6.95;2.85;;;21.20;85.70;;;;;;5002165;28;20037;-63
2023/07/12 04:54:23;;;;;;;3.97;2.60;;;21.30;85.70;;;;;;5002447;28;20525;-63
2023/07/12 04:56:49;;;;;;;3.83;2.95;;;21.30;85.30;;;;;;5002410;28;21102;-64
2023/07/12 04:59:15;;;;;;;4.93;2.88;;;21.40;85.30;;;;;;5002133;28;20514;-64
2023/07/12 05:01:41;;;;;;;6.13;2.95;;;21.40;85.40;;;;;;5004186;28;20050;-64
2023/07/12 05:04:07;;;;;;;4.18;2.92;;;21.40;85.30;;;;;;5004824;28;20041;-64
2023/07/12 05:06:33;;;;;;;5.93;2.67;;;21.40;86.50;;;;;;5004583;28;20045;-64
2023/07/12 05:08:59;;;;;;;6.53;3.10;;;21.40;86.00;;;;;;5006294;28;20551;-64
2023/07/12 05:11:25;;;;;;;6.00;3.10;;;21.40;86.00;;;;;;5003536;28;20038;-65
2023/07/12 05:13:50;;;;;;;8.40;3.10;;;21.40;86.20;;;;;;5005336;28;20241;-64
2023/07/12 05:16:16;;;;;;;6.28;2.90;;;21.40;86.30;;;;;;5007380;28;20045;-64
2023/07/12 05:18:41;;;;;;;6.68;3.13;;;21.40;86.30;;;;;;5006532;28;20593;-64
2023/07/12 05:21:08;;;;;;;5.75;2.70;;;21.40;86.10;;;;;;5004821;28;20145;-64
2023/07/12 05:23:36;;;;;;;5.40;2.92;;;21.40;86.30;;;;;;5005220;28;20042;-64
2023/07/12 05:26:01;;;;;;;5.00;2.70;;;21.40;86.20;;;;;;5005547;28;20037;-63
2023/07/12 05:28:27;;;;;;;5.55;2.45;;;21.40;86.20;;;;;;5005667;28;20497;-63
2023/07/12 05:30:53;;;;;;;6.10;2.40;;;21.40;86.10;;;;;;5006337;28;20034;-65
2023/07/12 05:33:18;;;;;;;6.10;2.72;;;21.40;86.10;;;;;;5005543;28;20036;-64
2023/07/12 05:35:46;;;;;;;3.42;2.53;;;21.50;86.00;;;;;;5006491;28;20136;-64
2023/07/12 05:38:12;;;;;;;5.95;2.65;;;21.40;86.20;;;;;;5005671;28;20035;-64
2023/07/12 05:40:37;;;;;;;3.75;2.33;;;21.50;86.10;;;;;;5005080;28;20041;-64
2023/07/12 05:43:03;;;;;;;4.47;2.72;;;21.50;85.90;;;;;;5005784;28;20034;-63
2023/07/12 05:45:29;;;;;;;6.10;3.05;;;21.50;85.90;;;;;;5005029;28;20042;-64
2023/07/12 05:47:55;;;;;;;5.25;2.92;;;21.50;85.70;;;;;;5006232;28;20096;-65
2023/07/12 05:50:20;;;;;;;6.72;3.03;;;21.50;85.30;;;;;;5004843;28;20041;-65
2023/07/12 05:52:46;;;;;;;4.93;2.80;;;21.50;85.60;;;;;;5004765;28;20034;-64
2023/07/12 05:55:17;;;;;;;6.25;3.25;;;21.40;85.70;;;;;;5006958;28;20033;-62
2023/07/12 05:57:43;;;;;;;7.57;3.10;;;21.40;86.00;;;;;;5007127;28;20030;-64
2023/07/12 06:00:10;;;;;;;4.53;2.85;;;21.40;85.90;;;;;;5005416;28;20044;-64
2023/07/12 06:02:37;;;;;;;6.95;3.10;;;21.40;86.00;;;;;;5003974;28;20045;-64
2023/07/12 06:05:04;;;;;;;5.55;2.85;;;21.40;86.10;;;;;;5005826;28;20047;-64
2023/07/12 06:07:30;;;;;;;4.97;2.70;;;21.40;86.20;;;;;;5006223;28;20038;-63
2023/07/12 06:09:55;;;;;;;6.25;2.80;;;21.40;86.30;;;;;;5006152;28;20052;-63
2023/07/12 06:12:21;;;;;;;7.13;2.92;;;21.40;86.60;;;;;;5003641;28;20505;-61
2023/07/12 06:14:46;;;;;;;6.30;2.65;;;21.50;86.60;;;;;;5004059;28;20116;-62
2023/07/12 06:17:12;;;;;;;3.38;2.50;;;21.50;86.70;;;;;;5006042;28;20030;-63
2023/07/12 06:19:37;;;;;;;6.88;2.88;;;21.50;86.80;;;;;;5003662;28;20042;-64
2023/07/12 06:22:04;;;;;;;5.30;2.83;;;21.60;86.70;;;;;;5005951;28;20058;-64
2023/07/12 06:24:30;;;;;;;4.45;2.63;;;21.60;86.70;;;;;;5005092;28;20068;-63
2023/07/12 06:26:55;;;;;;;5.93;2.67;;;21.70;86.70;;;;;;5005952;28;20061;-63
2023/07/12 06:29:21;;;;;;;4.75;2.60;;;21.70;86.60;;;;;;5003944;28;20498;-64
2023/07/12 06:31:47;;;;;;;5.20;2.50;;;21.80;86.60;;;;;;5004206;28;20107;-61
2023/07/12 06:34:13;;;;;;;5.22;2.80;;;21.90;86.30;;;;;;5004843;28;20491;-63
2023/07/12 06:36:38;;;;;;;5.57;2.90;;;21.90;86.40;;;;;;5005852;28;20088;-63
2023/07/12 06:39:04;;;;;;;3.75;2.53;;;21.90;86.40;;;;;;5006922;28;20038;-62
2023/07/12 06:41:30;;;;;;;5.28;2.63;;;22.00;86.40;;;;;;5006986;28;20064;-63
2023/07/12 06:43:56;;;;;;;3.92;2.40;;;22.00;86.60;;;;;;5004898;28;20049;-63
2023/07/12 06:46:22;;;;;;;3.90;2.70;;;22.10;86.70;;;;;;5004683;28;20030;-62
2023/07/12 06:48:48;;;;;;;7.53;2.88;;;22.20;86.90;;;;;;5004495;28;20056;-63
2023/07/12 06:51:14;;;;;;;5.90;2.72;;;22.30;86.60;;;;;;5004334;28;20042;-63
2023/07/12 06:53:39;;;;;;;5.18;2.53;;;22.30;86.10;;;;;;5005161;28;20430;-63
2023/07/12 06:56:05;;;;;;;6.60;2.55;;;22.30;85.70;;;;;;5005517;28;20038;-63
2023/07/12 06:58:31;;;;;;;6.72;2.70;;;22.40;85.60;;;;;;5003178;28;20030;-63
2023/07/12 07:00:56;;;;;;;6.00;2.80;;;22.40;85.70;;;;;;5004286;28;20033;-63
2023/07/12 07:03:22;;;;;;;6.07;3.05;;;22.40;85.80;;;;;;5005413;28;20049;-63
2023/07/12 07:05:48;;;;;;;5.35;2.75;;;22.40;85.70;;;;;;5003759;28;20034;-61
2023/07/12 07:08:15;;;;;;;4.28;2.72;;;22.50;85.70;;;;;;5005187;28;20035;-62
2023/07/12 07:10:43;;;;;;;5.93;2.60;;;22.50;85.90;;;;;;5001299;28;20117;-63
2023/07/12 07:13:09;;;;;;;3.33;2.47;;;22.50;85.70;;;;;;5005097;28;20702;-61
2023/07/12 07:15:34;;;;;;;4.72;2.60;;;22.60;85.60;;;;;;5003491;28;20065;-62
2023/07/12 07:18:00;;;;;;;5.32;2.90;;;22.60;85.70;;;;;;5004792;28;20037;-62
2023/07/12 07:20:27;;;;;;;7.55;2.95;;;22.60;85.60;;;;;;5004434;28;20465;-63
2023/07/12 07:22:53;;;;;;;6.53;2.75;;;22.60;85.50;;;;;;5006162;28;20042;-63
2023/07/12 07:25:19;;;;;;;4.35;2.88;;;22.60;85.50;;;;;;5005078;28;20105;-63
2023/07/12 07:27:45;;;;;;;6.30;3.10;;;22.60;85.70;;;;;;5005118;28;20065;-63
2023/07/12 07:30:12;;;;;;;5.00;2.58;;;22.60;85.40;;;;;;5003303;28;20529;-62
2023/07/12 07:32:37;;;;;;;4.53;2.67;;;22.70;85.70;;;;;;5003655;28;20045;-63
2023/07/12 07:35:03;;;;;;;6.47;2.88;;;22.70;85.70;;;;;;5004490;28;20401;-63
2023/07/12 07:37:29;;;;;;;8.50;2.97;;;22.70;85.70;;;;;;5004522;28;20413;-63
2023/07/12 07:39:55;;;;;;;7.45;2.80;;;22.70;85.90;;;;;;5004211;28;20038;-63
2023/07/12 07:42:20;;;;;;;6.43;2.55;;;22.70;85.70;;;;;;5004612;28;20408;-63
2023/07/12 07:44:46;;;;;;;4.65;2.60;;;22.80;85.90;;;;;;5001824;28;20141;-63
2023/07/12 07:47:11;;;;;;;8.15;2.88;;;22.90;86.00;;;;;;5003505;28;20026;-63
2023/07/12 07:49:37;;;;;;;6.18;2.97;;;22.90;85.70;;;;;;5003175;28;20509;-64
2023/07/12 07:52:03;;;;;;;8.25;2.90;;;22.90;85.30;;;;;;5003307;28;20173;-62
2023/07/12 07:54:29;;;;;;;3.92;2.70;;;23.00;85.20;;;;;;5004853;28;20041;-63
2023/07/12 07:56:54;;;;;;;5.97;2.63;;;23.10;85.30;;;;;;5002452;28;20505;-63
2023/07/12 07:59:20;;;;;;;5.78;3.13;;;23.10;85.20;;;;;;5001762;28;20076;-63
2023/07/12 08:01:45;;;;;;;5.10;2.60;;;23.20;85.30;;;;;;5003078;28;20045;-63
2023/07/12 08:04:11;;;;;;;6.43;2.78;;;23.20;85.30;;;;;;5005963;28;20332;-63
2023/07/12 08:06:38;;;;;;;4.80;2.80;;;23.30;85.20;;;;;;5006113;28;20125;-61
2023/07/12 08:09:05;;;;;;;5.55;2.78;;;23.40;85.00;;;;;;5005103;28;20050;-63
2023/07/12 08:11:31;;;;;;;6.30;2.90;;;23.50;85.00;;;;;;5002862;28;20030;-63
2023/07/12 08:13:57;;;;;;;5.38;2.80;;;23.50;85.10;;;;;;5004927;28;20036;-64
2023/07/12 08:16:26;;;;;;;6.28;3.15;;;23.60;85.10;;;;;;5002181;28;20466;-63
2023/07/12 08:18:52;;;;;;;7.68;2.92;;;23.70;84.60;;;;;;5004348;28;20996;-62
2023/07/12 08:21:17;;;;;;;5.63;3.22;;;23.80;84.10;;;;;;5005651;28;20087;-62
2023/07/12 08:23:43;;;;;;;5.40;2.80;;;23.90;83.70;;;;;;5006400;28;20034;-62
2023/07/12 08:26:09;;;;;;;11.65;3.15;;;23.90;83.80;;;;;;5003709;28;20033;-61
2023/07/12 08:28:34;;;;;;;6.22;3.15;;;24.00;83.70;;;;;;5001229;28;20118;-63
2023/07/12 08:31:00;;;;;;;10.40;3.38;;;24.10;84.10;;;;;;5004065;28;20037;-62
2023/07/12 08:33:25;;;;;;;5.43;3.22;;;24.20;83.80;;;;;;5001935;28;20064;-63
2023/07/12 08:35:51;;;;;;;7.65;3.47;;;24.40;83.60;;;;;;5004838;28;20091;-62
2023/07/12 08:38:18;;;;;;;7.85;3.30;;;24.50;84.00;;;;;;5004337;28;20383;-61
2023/07/12 08:40:47;;;;;;;7.15;2.80;;;24.60;82.60;;;;;;5004470;28;20030;-64
2023/07/12 08:43:18;;;;;;;7.40;2.80;;;24.70;82.50;;;;;;5005306;28;20113;-64
2023/07/12 08:45:45;;;;;;;6.97;3.30;;;24.80;81.90;;;;;;5004974;28;20060;-63
2023/07/12 08:48:21;;;;;;;7.72;3.60;;;24.90;81.50;;;;;;5003896;28;20046;-63
2023/07/12 08:50:48;;;;;;;7.55;3.47;;;25.00;81.60;;;;;;5002701;28;20042;-63
2023/07/12 08:53:27;;;;;;;6.45;3.70;;;25.20;81.30;;;;;;5003643;28;20516;-61
2023/07/12 08:55:53;;;;;;;7.82;3.30;;;25.30;81.00;;;;;;5002072;28;20034;-64
2023/07/12 08:58:36;;;;;;;10.88;3.90;;;25.40;80.70;;;;;;5005621;28;20037;-62
2023/07/12 09:01:05;;;;;;;9.18;3.75;;;25.60;79.60;;;;;;5002274;28;20034;-63
2023/07/12 09:03:31;;;;;;;9.02;4.25;;;25.70;79.40;;;;;;5001545;28;20374;-65
2023/07/12 09:05:58;;;;;;;8.90;4.20;;;25.80;79.20;;;;;;5002802;28;20050;-63
2023/07/12 09:08:37;;;;;;;7.10;3.92;;;25.90;78.10;;;;;;5003225;28;20053;-63
2023/07/12 09:11:03;;;;;;;9.27;3.88;;;26.00;77.60;;;;;;5000367;28;20038;-64
2023/07/12 09:13:34;;;;;;;5.85;3.75;;;26.00;76.70;;;;;;5004826;28;20390;-63
2023/07/12 09:16:00;;;;;;;7.97;4.25;;;26.10;77.10;;;;;;5003095;28;20422;-64
2023/07/12 09:18:33;;;;;;;9.30;4.22;;;26.10;76.50;;;;;;5002832;28;20038;-64
2023/07/12 09:21:09;;;;;;;7.13;4.00;;;26.20;75.80;;;;;;5003014;28;20061;-64
2023/07/12 09:23:40;;;;;;;8.63;4.43;;;26.20;75.30;;;;;;5004163;28;20030;-63
2023/07/12 09:26:11;;;;;;;9.63;4.43;;;26.20;75.30;;;;;;5002869;28;20077;-64
2023/07/12 09:28:40;;;;;;;5.50;4.18;;;26.20;75.40;;;;;;5004254;28;20456;-63
2023/07/12 09:31:21;;;;;;;9.98;4.53;;;26.20;75.70;;;;;;5001392;28;20042;-63
2023/07/12 09:33:53;;;;;;;7.88;3.90;;;26.20;75.40;;;;;;5004038;28;20053;-64
2023/07/12 09:36:19;;;;;;;7.05;3.85;;;26.30;76.20;;;;;;5003319;28;20037;-64
2023/07/12 09:38:45;;;;;;;9.00;4.35;;;26.30;76.20;;;;;;5002407;28;20030;-63
2023/07/12 09:41:25;;;;;;;8.20;4.22;;;26.40;76.20;;;;;;5003525;28;20059;-64
2023/07/12 09:44:00;;;;;;;8.30;4.25;;;26.60;75.60;;;;;;5002494;28;20034;-63
2023/07/12 09:46:33;;;;;;;7.90;4.00;;;26.70;75.10;;;;;;5002473;28;20038;-63
2023/07/12 09:49:10;;;;;;;6.40;4.22;;;26.80;74.10;;;;;;5003831;28;20045;-64
2023/07/12 09:51:44;;;;;;;8.13;4.50;;;26.90;74.00;;;;;;5005439;28;20038;-64
2023/07/12 09:54:32;;;;;;;;;;;27.00;72.90;;;;;;5006272;28;20057;-63
2023/07/12 09:57:06;;;;;;;5.07;3.90;;;27.10;73.00;;;;;;5006369;28;19920;-64
2023/07/12 09:59:47;;;;;;;7.70;4.18;;;27.20;72.70;;;;;;5005698;28;20033;-63
2023/07/12 10:02:25;;;;;;;6.93;3.90;;;27.20;72.80;;;;;;5005981;28;20104;-64
2023/07/12 10:04:55;;;;;;;6.40;4.18;;;27.30;72.40;;;;;;5006277;28;20421;-64
2023/07/12 10:07:35;;;;;;;5.20;4.13;;;27.40;72.00;;;;;;5007461;28;20030;-64
2023/07/12 10:10:02;;;;;;;10.02;4.40;;;27.50;72.00;;;;;;5006317;28;20125;-64
2023/07/12 10:12:39;;;;;;;7.80;4.28;;;27.60;71.00;;;;;;5006956;28;20065;-64
2023/07/12 10:15:11;;;;;;;7.50;4.10;;;27.70;69.20;;;;;;5004578;28;20033;-64
2023/07/12 10:17:40;;;;;;;8.88;4.03;;;27.80;70.20;;;;;;5003104;28;20029;-64
2023/07/12 10:20:13;;;;;;;6.25;4.07;;;27.90;69.80;;;;;;5006847;28;20072;-64
2023/07/12 10:22:41;;;;;;;6.25;4.20;;;28.00;70.00;;;;;;5006461;28;20129;-64
2023/07/12 10:25:20;;;;;;;8.48;4.22;;;28.00;69.70;;;;;;5006704;28;20045;-65
2023/07/12 10:27:52;;;;;;;6.32;4.10;;;28.20;69.10;;;;;;5006214;28;20041;-63
2023/07/12 10:30:21;;;;;;;5.47;3.55;;;28.20;67.30;;;;;;5005816;28;20317;-63
2023/07/12 10:32:57;;;;;;;6.45;3.78;;;28.30;66.70;;;;;;5004943;28;20033;-62
2023/07/12 10:35:40;;;;;;;6.10;3.85;;;28.40;65.00;;;;;;5007035;28;20042;-64
2023/07/12 10:38:15;;;;;;;6.25;3.80;;;28.50;65.50;;;;;;5008124;28;20104;-64
2023/07/12 10:40:52;;;;;;;5.20;3.65;;;28.50;66.30;;;;;;5006704;28;20049;-64
2023/07/12 10:43:37;;;;;;;7.18;3.83;;;28.60;65.20;;;;;;5007753;28;20099;-62
2023/07/12 10:46:04;;;;;;;;;;;28.70;64.50;;;;;;5005445;28;20109;-64
2023/07/12 10:48:31;;;;;;;4.10;3.58;;;28.80;65.90;;;;;;5005985;28;19917;-64
2023/07/12 10:51:35;;;;;;;8.43;3.80;;;28.90;64.20;;;;;;5004814;28;20041;-64
2023/07/12 10:54:02;;;;;;;6.35;3.33;;;28.90;63.70;;;;;;4983582;28;20045;-65
2023/07/12 10:56:27;;;;;;;8.75;3.97;;;29.00;63.70;;;;;;5005400;28;20513;-64
2023/07/12 10:59:00;;;;;;;5.45;3.80;;;29.10;63.40;;;;;;5004020;28;20065;-64
2023/07/12 11:02:04;;;;;;;5.80;3.65;;;29.10;62.50;;;;;;5004287;28;20034;-65
2023/07/12 11:04:29;;;;;;;4.82;3.75;;;29.20;60.30;;;;;;4992004;28;20042;-64
2023/07/12 11:07:04;;;;;;;6.25;3.80;;;29.30;62.10;;;;;;5004234;28;20453;-63
2023/07/12 11:09:42;;;;;;;;;;;29.30;60.40;;;;;;5005624;28;20038;-63
2023/07/12 11:12:08;;;;;;;4.35;3.90;;;29.40;59.50;;;;;;5003683;28;19921;-64
2023/07/12 11:14:37;;;;;;;4.78;3.63;;;29.40;60.40;;;;;;5001406;28;20099;-64
2023/07/12 11:17:09;;;;;;;6.32;4.07;;;29.40;60.30;;;;;;5005348;28;20058;-64
2023/07/12 11:19:41;;;;;;;4.68;3.80;;;29.40;59.00;;;;;;5005046;28;20108;-64
2023/07/12 11:22:20;;;;;;;4.13;3.65;;;29.40;59.60;;;;;;5003874;28;20092;-64
2023/07/12 11:25:11;;;;;;;7.22;3.47;;;29.40;59.10;;;;;;5006211;28;20501;-64
2023/07/12 11:27:41;;;;;;;6.15;3.63;;;29.30;59.40;;;;;;5007143;28;20038;-64
2023/07/12 11:30:36;;;;;;;7.15;4.18;;;29.40;60.00;;;;;;5005994;28;20156;-64
2023/07/12 11:33:08;;;;;;;5.72;3.88;;;29.40;59.40;;;;;;5006086;28;20379;-64
2023/07/12 11:35:48;;;;;;;6.28;3.88;;;29.40;59.50;;;;;;5007103;28;20184;-64
2023/07/12 11:38:20;;;;;;;6.43;4.15;;;29.40;59.40;;;;;;5004812;28;20109;-64
2023/07/12 11:40:55;;;;;;;7.38;3.55;;;29.40;59.50;;;;;;5002465;28;21809;-62
2023/07/12 11:43:23;;;;;;;6.60;3.75;;;29.50;59.70;;;;;;5004409;28;20038;-65
2023/07/12 11:45:55;;;;;;;5.18;3.65;;;29.50;59.90;;;;;;5004742;28;20038;-62
2023/07/12 11:48:22;;;;;;;6.93;3.90;;;29.60;59.70;;;;;;5005541;28;20037;-64
2023/07/12 11:50:52;;;;;;;5.45;4.00;;;29.60;59.20;;;;;;5002701;28;20049;-64
2023/07/12 11:53:19;;;;;;;5.68;3.75;;;29.60;58.70;;;;;;5004107;28;20045;-63
2023/07/12 11:55:48;;;;;;;5.95;3.90;;;29.60;59.20;;;;;;5003098;28;20034;-64
2023/07/12 11:58:20;;;;;;;7.03;4.10;;;29.60;58.60;;;;;;5003534;28;20093;-65
2023/07/12 12:00:47;;;;;;;6.53;3.67;;;29.50;57.50;;;;;;5002632;28;20566;-64
2023/07/12 12:03:14;;;;;;;4.82;3.75;;;29.40;58.10;;;;;;5003062;28;20494;-64
2023/07/12 12:05:44;;;;;;;5.22;4.20;;;29.30;57.90;;;;;;5002901;28;20064;-64
2023/07/12 12:08:19;;;;;;;5.55;3.80;;;29.30;58.40;;;;;;5004398;28;20168;-63
2023/07/12 12:10:48;;;;;;;6.18;4.22;;;29.20;58.70;;;;;;4998964;28;20056;-65
2023/07/12 12:13:19;;;;;;;6.70;4.18;;;29.10;58.90;;;;;;5003124;28;20061;-64
2023/07/12 12:16:06;;;;;;;7.72;4.07;;;29.00;59.50;;;;;;5003820;28;20038;-62
2023/07/12 12:18:34;;;;;;;8.07;4.10;;;28.90;59.40;;;;;;5003163;28;20087;-64
2023/07/12 12:21:13;;;;;;;5.75;4.00;;;28.90;59.90;;;;;;5003371;28;20030;-63
2023/07/12 12:23:47;;;;;;;7.70;4.30;;;28.80;60.80;;;;;;5004453;28;20038;-64
2023/07/12 12:26:21;;;;;;;7.40;4.47;;;28.70;61.90;;;;;;4999785;28;20117;-64
2023/07/12 12:29:00;;;;;;;6.57;4.80;;;28.60;62.30;;;;;;5003753;28;20033;-63
2023/07/12 12:31:29;;;;;;;5.40;4.13;;;28.50;63.40;;;;;;5003951;28;20153;-64
2023/07/12 12:34:13;;;;;;;5.22;4.22;;;28.40;64.60;;;;;;5003374;28;20304;-62
2023/07/12 12:36:38;;;;;;;5.13;4.63;;;28.20;66.70;;;;;;5005700;28;20034;-63
2023/07/12 12:39:19;;;;;;;6.72;4.90;;;28.20;66.30;;;;;;5005094;28;20034;-62
2023/07/12 12:41:58;;;;;;;6.03;4.88;;;28.10;67.40;;;;;;5005382;28;20119;-63
2023/07/12 12:44:29;;;;;;;6.47;4.78;;;27.90;66.20;;;;;;5004391;28;20042;-63
2023/07/12 12:46:56;;;;;;;5.55;4.18;;;27.70;63.60;;;;;;5003551;28;20034;-60
2023/07/12 12:49:26;;;;;;;8.27;4.38;;;27.30;63.50;;;;;;5001867;28;20042;-60
2023/07/12 12:51:54;;;;;;;4.65;4.22;;;27.00;63.70;;;;;;5003272;28;20061;-62
2023/07/12 12:54:20;;;;;;;4.80;4.40;;;26.70;64.60;;;;;;5004124;28;20045;-62